»·PEaware :: N231DG KSAN-KBUR

N231DG :: KSAN-KBUR

FLIGHT INFORMATION

Flight Status: Arrived
Operator: Privately registered:
United States
More flights under this callsign
Pilot: Chip D. (15091)
Aircraft: CESSNA 172 SKYHAWK
(C172)
More flights by this aircraft type
Origin: KSAN San Diego Intl-Lindbergh
United States
Destination: KBUR Bob Hope-Burbank
United States
More flights between these airports :: More routes between these airports
Route: +OCN V23 POPPR SMO125 SMO SMO311 SILEX
File this flight plan on PilotEdge
Remarks: RMK / SIMBRIEF
Altitude:
(Current/Filed)
4,000ft
Speed:
(Current/Filed)
111kts
Departed: 31-Dec-19 12:08 PM
Arrived: 31-Dec-19 01:24 PM
Distance/Time
Traveled:
106nm/1:16
Distance/Time
To Go:
Arrived

Flight Plot

Page will automatically refresh every two minutes.


Map Options




Map Legend


Flown Route
Filed Route
Departure Airport
Arrival Airport
Navaid (VOR, NDB)
Fix

Horizontal Profiles

Position Reports

Time Latitude Longitude Heading Altitude Ground
Speed
31-Dec-19 11:51 32.732420 -117.176641 193 22ft 0kts
31-Dec-19 11:52 32.732420 -117.176641 193 22ft 0kts
31-Dec-19 11:53 32.732420 -117.176641 193 22ft 0kts
31-Dec-19 11:54 32.732420 -117.176641 193 22ft 0kts
31-Dec-19 11:55 32.732420 -117.176641 193 22ft 0kts
31-Dec-19 11:56 32.732420 -117.176641 193 22ft 0kts
31-Dec-19 11:57 32.732420 -117.176641 193 22ft 0kts
31-Dec-19 11:58 32.732420 -117.176641 193 22ft 0kts
31-Dec-19 11:59 32.732420 -117.176641 193 22ft 0kts
31-Dec-19 12:00 32.732420 -117.176641 193 22ft 0kts
31-Dec-19 12:01 32.732420 -117.176641 193 22ft 0kts
31-Dec-19 12:02 32.732420 -117.176641 193 22ft 0kts
31-Dec-19 12:03 32.732420 -117.176641 193 22ft 0kts
31-Dec-19 12:04 32.731492 -117.176503 195 20ft 10kts
31-Dec-19 12:05 32.731277 -117.176590 194 20ft 0kts
31-Dec-19 12:06 32.730743 -117.176765 207 20ft 10kts
31-Dec-19 12:07 32.734917 -117.195314 284 561ft 84kts
31-Dec-19 12:08 32.754096 -117.217732 321 1194ft 121kts
31-Dec-19 12:09 32.782097 -117.242227 322 1697ft 120kts
31-Dec-19 12:10 32.807476 -117.264997 323 2578ft 110kts
31-Dec-19 12:11 32.833699 -117.278103 15 3450ft 103kts
31-Dec-19 12:12 32.860931 -117.271561 19 4347ft 97kts
31-Dec-19 12:13 32.884350 -117.259724 34 5134ft 93kts
31-Dec-19 12:14 32.910980 -117.263491 342 5719ft 118kts
31-Dec-19 12:15 32.942675 -117.279127 344 5990ft 136kts
31-Dec-19 12:16 32.979326 -117.296101 343 5986ft 143kts
31-Dec-19 12:17 33.016743 -117.313195 341 5985ft 145kts
31-Dec-19 12:18 33.052925 -117.329680 341 5980ft 125kts
31-Dec-19 12:19 33.079752 -117.341830 337 5979ft 97kts
31-Dec-19 12:20 33.104832 -117.353301 337 5981ft 96kts
31-Dec-19 12:21 33.130067 -117.364813 338 5982ft 97kts
31-Dec-19 12:22 33.155302 -117.376325 340 5982ft 97kts
31-Dec-19 12:23 33.180565 -117.387840 342 5982ft 97kts
31-Dec-19 12:24 33.206038 -117.399451 343 5983ft 98kts
31-Dec-19 12:25 33.231728 -117.411164 345 5983ft 100kts
31-Dec-19 12:26 33.254676 -117.431648 324 5983ft 106kts
31-Dec-19 12:27 33.276418 -117.456218 324 5991ft 107kts
31-Dec-19 12:28 33.298168 -117.481257 324 6001ft 109kts
31-Dec-19 12:29 33.319971 -117.506511 323 6001ft 109kts
31-Dec-19 12:30 33.341682 -117.531708 323 6001ft 108kts
31-Dec-19 12:31 33.363350 -117.556882 323 6001ft 108kts
31-Dec-19 12:32 33.384926 -117.581968 323 6001ft 108kts
31-Dec-19 12:33 33.406407 -117.606964 323 6001ft 107kts
31-Dec-19 12:34 33.427865 -117.631953 324 6003ft 107kts
31-Dec-19 12:35 33.449378 -117.657022 323 6003ft 108kts
31-Dec-19 12:36 33.462444 -117.691064 297 6007ft 116kts
31-Dec-19 12:37 33.475380 -117.726051 298 6010ft 116kts
31-Dec-19 12:38 33.488653 -117.761217 307 6012ft 115kts
31-Dec-19 12:39 33.510253 -117.787520 325 6014ft 111kts
31-Dec-19 12:40 33.532062 -117.814176 322 6017ft 113kts
31-Dec-19 12:41 33.553481 -117.841840 322 6016ft 113kts
31-Dec-19 12:42 33.574459 -117.870167 305 6016ft 117kts
31-Dec-19 12:43 33.586638 -117.906966 298 6019ft 117kts
31-Dec-19 12:44 33.598601 -117.943213 298 6021ft 116kts
31-Dec-19 12:45 33.610587 -117.978743 298 6022ft 114kts
31-Dec-19 12:47 33.622745 -118.013612 298 6024ft 112kts
31-Dec-19 12:48 33.635106 -118.047983 299 6025ft 111kts
31-Dec-19 12:49 33.647709 -118.081884 299 6027ft 110kts
31-Dec-19 12:50 33.669232 -118.105317 326 6028ft 105kts
31-Dec-19 12:51 33.692128 -118.126789 325 6030ft 104kts
31-Dec-19 12:52 33.713928 -118.149900 321 6032ft 104kts
31-Dec-19 12:53 33.735057 -118.173189 321 6033ft 103kts
31-Dec-19 12:54 33.755986 -118.196435 320 6035ft 102kts
31-Dec-19 12:55 33.776583 -118.219483 320 6036ft 100kts
31-Dec-19 12:56 33.797884 -118.240702 329 6037ft 98kts
31-Dec-19 12:57 33.820908 -118.258399 328 6037ft 97kts
31-Dec-19 12:58 33.842996 -118.277182 322 6037ft 97kts
31-Dec-19 12:59 33.863881 -118.297825 321 6037ft 96kts
31-Dec-19 13:00 33.884533 -118.318399 321 6036ft 96kts
31-Dec-19 13:01 33.905401 -118.339340 321 6016ft 97kts
31-Dec-19 13:02 33.925124 -118.361678 315 6015ft 97kts
31-Dec-19 13:03 33.943162 -118.386273 313 6013ft 98kts
31-Dec-19 13:04 33.962806 -118.408931 326 6011ft 97kts
31-Dec-19 13:05 33.984217 -118.428154 325 6010ft 94kts
31-Dec-19 13:05 34.001465 -118.444425 325 6009ft 94kts
31-Dec-19 13:07 34.024984 -118.469180 321 5415ft 96kts
31-Dec-19 13:08 34.046374 -118.493284 321 4717ft 109kts
31-Dec-19 13:08 34.065042 -118.514248 321 4124ft 110kts
31-Dec-19 13:10 34.088537 -118.541277 321 4003ft 106kts
31-Dec-19 13:11 34.110918 -118.566974 321 4014ft 114kts
31-Dec-19 13:11 34.128530 -118.587992 322 4015ft 93kts
31-Dec-19 13:12 34.148977 -118.609045 350 4025ft 98kts
31-Dec-19 13:13 34.175690 -118.617196 12 4025ft 96kts
31-Dec-19 13:14 34.192928 -118.595007 59 4028ft 95kts
31-Dec-19 13:15 34.199512 -118.563334 80 3905ft 101kts
31-Dec-19 13:16 34.199516 -118.532097 81 3416ft 87kts
31-Dec-19 13:17 34.199255 -118.503299 82 2956ft 85kts
31-Dec-19 13:18 34.198908 -118.476284 78 2507ft 70kts
31-Dec-19 13:19 34.198688 -118.451252 80 2131ft 74kts
31-Dec-19 13:20 34.198425 -118.424423 80 1671ft 83kts
31-Dec-19 13:21 34.198155 -118.397948 82 1238ft 78kts
31-Dec-19 13:22 34.197873 -118.371820 82 840ft 78kts
31-Dec-19 13:23 34.198572 -118.360231 4 717ft 0kts
31-Dec-19 13:24 34.198572 -118.360231 4 717ft 0kts
31-Dec-19 13:25 34.198572 -118.360231 4 717ft 0kts
31-Dec-19 13:26 34.198572 -118.360231 4 717ft 0kts
31-Dec-19 13:27 34.198572 -118.360231 4 717ft 0kts
31-Dec-19 13:28 34.198755 -118.360234 355 718ft 8kts

Navigation Log

Ident Type
Flight plan parsing failed, navigation log unavailable